Time;durP1;ratioP1;P1;durP2;ratioP2;P2;SDS_P1;SDS_P2;PMS_P1;PMS_P2;Temp;Humidity;BMP_temperature;BMP_pressure;BME280_temperature;BME280_humidity;BME280_pressure;Samples;Min_cycle;Max_cycle;Signal;HPM_P1;HPM_P2
2023/03/09 00:00:50;;;;;;;18.90;16.90;;;2.10;99.90;;;;;;4898891;29;20462;-73
2023/03/09 00:03:18;;;;;;;18.53;16.63;;;2.10;99.90;;;;;;4900052;29;21005;-73
2023/03/09 00:05:53;;;;;;;18.63;16.73;;;2.10;99.90;;;;;;4900074;29;21037;-74
2023/03/09 00:08:21;;;;;;;18.30;16.50;;;2.10;99.90;;;;;;4900064;29;20434;-74
2023/03/09 00:10:52;;;;;;;20.27;18.07;;;2.10;99.90;;;;;;4898623;29;20588;-74
2023/03/09 00:13:21;;;;;;;19.53;17.60;;;2.10;99.90;;;;;;4899904;29;20461;-73
2023/03/09 00:15:50;;;;;;;21.77;19.10;;;2.00;99.90;;;;;;4899913;29;20448;-73
2023/03/09 00:18:19;;;;;;;19.67;17.63;;;2.00;99.90;;;;;;4899882;29;20441;-73
2023/03/09 00:20:48;;;;;;;19.50;17.30;;;2.00;99.90;;;;;;4898568;29;20451;-73
2023/03/09 00:23:19;;;;;;;20.57;18.37;;;2.00;99.90;;;;;;4899734;29;20517;-74
2023/03/09 00:25:47;;;;;;;21.00;17.53;;;2.00;99.90;;;;;;4899857;29;20462;-73
2023/03/09 00:28:15;;;;;;;19.10;17.10;;;2.00;99.90;;;;;;4899677;29;20435;-73
2023/03/09 00:30:43;;;;;;;20.77;18.57;;;2.00;99.90;;;;;;4898320;29;20480;-73
2023/03/09 00:33:11;;;;;;;20.80;17.83;;;2.00;99.90;;;;;;4898330;29;20591;-73
2023/03/09 00:35:40;;;;;;;20.20;18.10;;;2.00;99.90;;;;;;4898300;29;20563;-73
2023/03/09 00:38:08;;;;;;;22.70;18.43;;;2.00;99.90;;;;;;4898325;29;20512;-73
2023/03/09 00:40:38;;;;;;;21.53;18.40;;;2.00;99.90;;;;;;4898231;29;20971;-73
2023/03/09 00:43:08;;;;;;;21.43;18.60;;;1.90;99.90;;;;;;4899672;29;20485;-73
2023/03/09 00:45:36;;;;;;;19.67;17.00;;;1.90;99.90;;;;;;4899763;29;20453;-73
2023/03/09 00:48:05;;;;;;;21.20;18.67;;;1.90;99.90;;;;;;4897640;29;20454;-73
2023/03/09 00:50:33;;;;;;;21.80;18.53;;;1.90;99.90;;;;;;4899074;29;20565;-73
2023/03/09 00:53:03;;;;;;;21.57;19.00;;;1.90;99.90;;;;;;4899166;29;20467;-73
2023/03/09 00:55:31;;;;;;;24.10;19.97;;;1.80;99.90;;;;;;4897952;29;20457;-73
2023/03/09 00:58:00;;;;;;;22.80;18.00;;;1.90;99.90;;;;;;4897822;29;20987;-73
2023/03/09 01:00:31;;;;;;;24.13;18.20;;;1.80;99.90;;;;;;4897858;29;20487;-73
2023/03/09 01:03:02;;;;;;;21.20;17.40;;;1.90;99.90;;;;;;4897793;29;20502;-73
2023/03/09 01:05:31;;;;;;;22.87;17.67;;;1.80;99.90;;;;;;4897690;29;20467;-73
2023/03/09 01:07:59;;;;;;;23.40;18.90;;;1.80;99.90;;;;;;4897735;29;20450;-73
2023/03/09 01:10:27;;;;;;;22.67;18.40;;;1.80;99.90;;;;;;4898797;29;20480;-73
2023/03/09 01:12:55;;;;;;;20.50;17.53;;;1.80;99.90;;;;;;4897592;29;20484;-74
2023/03/09 01:15:25;;;;;;;21.87;18.40;;;1.80;99.90;;;;;;4899048;29;20458;-74
2023/03/09 01:17:53;;;;;;;22.53;19.67;;;1.80;99.90;;;;;;4897554;29;20492;-73
2023/03/09 01:20:21;;;;;;;21.80;18.87;;;1.80;99.90;;;;;;4897762;29;20459;-74
2023/03/09 01:22:50;;;;;;;22.10;18.97;;;1.80;99.90;;;;;;4897361;29;20573;-73
2023/03/09 01:25:18;;;;;;;22.20;19.40;;;1.70;99.90;;;;;;4898664;29;20797;-74
2023/03/09 01:27:47;;;;;;;22.60;18.23;;;1.80;99.90;;;;;;4897320;29;20453;-74
2023/03/09 01:30:16;;;;;;;22.27;18.97;;;1.70;99.90;;;;;;4897251;29;20479;-74
2023/03/09 01:32:47;;;;;;;21.17;18.60;;;1.70;99.90;;;;;;4897267;29;20811;-73
2023/03/09 01:35:16;;;;;;;22.73;18.27;;;1.80;99.90;;;;;;4897961;29;20463;-74
2023/03/09 01:37:44;;;;;;;22.50;17.63;;;1.70;99.90;;;;;;4898447;29;20440;-73
2023/03/09 01:40:17;;;;;;;19.90;17.13;;;1.70;99.90;;;;;;4897216;29;20478;-73
2023/03/09 01:42:54;;;;;;;22.47;16.90;;;1.70;99.90;;;;;;4897096;29;20500;-74
2023/03/09 01:46:00;;;;;;;19.80;17.07;;;1.70;99.90;;;;;;4897117;29;20447;-73
2023/03/09 01:48:29;;;;;;;19.70;15.90;;;1.70;99.90;;;;;;4897117;29;20483;-73
2023/03/09 01:50:58;;;;;;;20.30;16.33;;;1.70;99.90;;;;;;4896991;29;20998;-73
2023/03/09 01:53:26;;;;;;;17.97;15.77;;;1.70;99.90;;;;;;4896947;29;20478;-73
2023/03/09 01:55:55;;;;;;;19.43;15.67;;;1.80;99.90;;;;;;4898509;29;20810;-73
2023/03/09 01:58:27;;;;;;;18.00;14.97;;;1.70;99.90;;;;;;4897013;29;20454;-73
2023/03/09 02:00:57;;;;;;;16.20;14.27;;;1.70;99.90;;;;;;4898617;29;20462;-73
2023/03/09 02:03:30;;;;;;;16.90;14.57;;;1.70;99.90;;;;;;4896875;29;20470;-73
2023/03/09 02:06:03;;;;;;;18.33;15.30;;;1.70;99.90;;;;;;4897212;29;20454;-73
2023/03/09 02:08:33;;;;;;;16.80;14.37;;;1.60;99.90;;;;;;4897173;29;20457;-73
2023/03/09 02:11:06;;;;;;;15.43;13.70;;;1.60;99.90;;;;;;4896886;29;20499;-73
2023/03/09 02:13:39;;;;;;;16.47;12.60;;;1.60;99.90;;;;;;4896853;29;20476;-73
2023/03/09 02:16:08;;;;;;;15.47;13.80;;;1.60;99.90;;;;;;4898343;29;20435;-73
2023/03/09 02:18:38;;;;;;;16.90;15.10;;;1.70;99.90;;;;;;4898017;29;20441;-73
2023/03/09 02:21:15;;;;;;;16.30;13.67;;;1.60;99.90;;;;;;4896935;29;20454;-73
2023/03/09 02:23:49;;;;;;;14.60;13.10;;;1.60;99.90;;;;;;4896746;29;20480;-73
2023/03/09 02:26:23;;;;;;;16.50;13.37;;;1.60;99.90;;;;;;4898145;29;20973;-73
2023/03/09 02:28:53;;;;;;;17.17;14.20;;;1.60;99.90;;;;;;4896778;29;20950;-73
2023/03/09 02:31:23;;;;;;;17.00;14.37;;;1.60;99.90;;;;;;4896692;29;20473;-73
2023/03/09 02:33:51;;;;;;;15.23;13.00;;;1.60;99.90;;;;;;4896677;29;20478;-73
2023/03/09 02:36:20;;;;;;;15.07;12.37;;;1.60;99.90;;;;;;4896820;29;20551;-73
2023/03/09 02:38:49;;;;;;;17.43;14.30;;;1.60;99.90;;;;;;4896892;29;20506;-73
2023/03/09 02:41:20;;;;;;;17.87;14.30;;;1.60;99.90;;;;;;4896920;29;20459;-73
2023/03/09 02:43:52;;;;;;;17.33;13.00;;;1.60;99.90;;;;;;4896844;29;20855;-73
2023/03/09 02:46:22;;;;;;;17.37;14.43;;;1.60;99.90;;;;;;4897459;29;20449;-73
2023/03/09 02:48:50;;;;;;;18.73;14.80;;;1.60;99.90;;;;;;4896612;29;20441;-73
2023/03/09 02:51:18;;;;;;;17.90;14.00;;;1.60;99.90;;;;;;4896521;29;20474;-73
2023/03/09 02:53:47;;;;;;;19.23;15.70;;;1.60;99.90;;;;;;4896521;29;20479;-73
2023/03/09 02:56:15;;;;;;;16.67;14.53;;;1.60;99.90;;;;;;4897773;29;20447;-73
2023/03/09 02:58:44;;;;;;;18.17;14.93;;;1.60;99.90;;;;;;4896443;29;20457;-73
2023/03/09 03:01:12;;;;;;;19.17;14.67;;;1.60;99.90;;;;;;4896710;29;20968;-73
2023/03/09 03:03:42;;;;;;;18.97;16.40;;;1.60;99.90;;;;;;4896414;29;20481;-73
2023/03/09 03:06:11;;;;;;;16.80;14.57;;;1.60;99.90;;;;;;4896748;29;20459;-73
2023/03/09 03:08:40;;;;;;;20.40;16.87;;;1.60;99.90;;;;;;4896478;29;20458;-73
2023/03/09 03:11:11;;;;;;;18.90;15.33;;;1.60;99.90;;;;;;4896458;29;20482;-73
2023/03/09 03:13:41;;;;;;;19.40;15.53;;;1.60;99.90;;;;;;4899633;29;20481;-73
2023/03/09 03:16:11;;;;;;;21.03;16.93;;;1.50;99.90;;;;;;4900870;29;20468;-73
2023/03/09 03:18:41;;;;;;;20.10;15.50;;;1.60;99.90;;;;;;4899785;29;20479;-73
2023/03/09 03:21:10;;;;;;;19.70;15.87;;;1.60;99.90;;;;;;4899693;29;20492;-73
2023/03/09 03:23:41;;;;;;;20.50;16.70;;;1.60;99.90;;;;;;4899718;29;20996;-73
2023/03/09 03:26:11;;;;;;;19.37;16.20;;;1.60;99.90;;;;;;4899539;29;20464;-73
2023/03/09 03:28:43;;;;;;;19.20;16.53;;;1.60;99.90;;;;;;4899606;29;20449;-73
2023/03/09 03:31:19;;;;;;;18.50;16.20;;;1.60;99.90;;;;;;4899481;29;20890;-73
2023/03/09 03:33:50;;;;;;;17.50;15.57;;;1.60;99.90;;;;;;4899423;29;20992;-73
2023/03/09 03:36:20;;;;;;;20.03;16.43;;;1.60;99.90;;;;;;4899998;29;20483;-73
2023/03/09 03:38:49;;;;;;;20.80;17.00;;;1.60;99.90;;;;;;4899492;29;20458;-73
2023/03/09 03:41:17;;;;;;;24.83;18.23;;;1.60;99.90;;;;;;4899344;29;20546;-73
2023/03/09 03:43:50;;;;;;;19.67;16.53;;;1.60;99.90;;;;;;4899297;29;20506;-73
2023/03/09 03:46:19;;;;;;;19.47;17.47;;;1.60;99.90;;;;;;4899222;29;20453;-74
2023/03/09 03:48:47;;;;;;;19.80;16.83;;;1.60;99.90;;;;;;4899283;29;20453;-73
2023/03/09 03:51:19;;;;;;;21.70;17.03;;;1.60;99.90;;;;;;4899615;29;20498;-73
2023/03/09 03:53:51;;;;;;;19.47;16.63;;;1.60;99.90;;;;;;4899138;29;20985;-73
2023/03/09 03:56:19;;;;;;;22.17;17.50;;;1.70;99.90;;;;;;4899072;29;20457;-73
2023/03/09 03:58:50;;;;;;;20.03;16.83;;;1.60;99.90;;;;;;4899086;29;20454;-73
2023/03/09 04:01:19;;;;;;;22.70;20.10;;;1.60;99.90;;;;;;4898992;29;20541;-73
2023/03/09 04:03:52;;;;;;;22.37;18.90;;;1.60;99.90;;;;;;4899111;29;20485;-73
2023/03/09 04:06:22;;;;;;;19.70;16.27;;;1.60;99.90;;;;;;4898855;29;20482;-73
2023/03/09 04:08:50;;;;;;;22.40;17.90;;;1.60;99.90;;;;;;4898932;29;20552;-73
2023/03/09 04:11:18;;;;;;;20.43;18.20;;;1.60;99.90;;;;;;4899065;29;20878;-73
2023/03/09 04:13:49;;;;;;;21.90;19.40;;;1.60;99.90;;;;;;4898710;29;20503;-73
2023/03/09 04:16:19;;;;;;;19.57;16.33;;;1.60;99.90;;;;;;4898699;29;20455;-73
2023/03/09 04:18:48;;;;;;;24.37;20.10;;;1.60;99.90;;;;;;4898931;29;20553;-73
2023/03/09 04:21:18;;;;;;;21.90;18.20;;;1.60;99.90;;;;;;4898655;29;20445;-73
2023/03/09 04:23:50;;;;;;;23.17;19.33;;;1.60;99.90;;;;;;4897378;29;20497;-73
2023/03/09 04:26:18;;;;;;;23.30;19.30;;;1.60;99.90;;;;;;4899865;29;20459;-73
2023/03/09 04:29:13;;;;;;;23.33;19.27;;;1.60;99.90;;;;;;4898641;29;20441;-73
2023/03/09 04:31:41;;;;;;;23.40;19.13;;;1.60;99.90;;;;;;4898284;29;20466;-74
2023/03/09 04:34:11;;;;;;;21.73;19.43;;;1.80;99.90;;;;;;4898287;29;20892;-73
2023/03/09 04:36:41;;;;;;;22.67;20.00;;;1.60;99.90;;;;;;4898334;29;20450;-74
2023/03/09 04:39:12;;;;;;;26.17;21.63;;;1.60;99.90;;;;;;4898473;29;20466;-73
2023/03/09 04:41:40;;;;;;;24.13;21.53;;;1.60;99.90;;;;;;4898672;29;20573;-74
2023/03/09 04:44:12;;;;;;;24.80;20.10;;;1.60;99.90;;;;;;4898122;29;20820;-73
2023/03/09 04:46:41;;;;;;;24.37;19.93;;;1.60;99.90;;;;;;4898031;29;20454;-73
2023/03/09 04:49:12;;;;;;;24.90;21.93;;;1.60;99.90;;;;;;4898056;29;20455;-73
2023/03/09 04:51:42;;;;;;;23.60;20.00;;;1.60;99.90;;;;;;4897946;29;20515;-73
2023/03/09 04:54:13;;;;;;;23.17;20.27;;;1.60;99.90;;;;;;4897886;29;20520;-73
2023/03/09 04:56:41;;;;;;;25.80;21.00;;;1.50;99.90;;;;;;4897884;29;20509;-73
2023/03/09 04:59:15;;;;;;;23.67;19.80;;;1.60;99.90;;;;;;4898804;29;20453;-73
2023/03/09 05:01:44;;;;;;;23.10;20.23;;;1.50;99.90;;;;;;4897807;29;20877;-73
2023/03/09 05:04:17;;;;;;;23.17;20.47;;;1.50;99.90;;;;;;4897786;29;20475;-73
2023/03/09 05:06:53;;;;;;;21.83;18.83;;;1.50;99.90;;;;;;4897853;29;20953;-73
2023/03/09 05:09:24;;;;;;;20.93;18.40;;;1.50;99.90;;;;;;4897731;29;20477;-73
2023/03/09 05:11:53;;;;;;;23.00;19.70;;;1.50;99.90;;;;;;4897624;29;20993;-73
2023/03/09 05:14:23;;;;;;;22.90;19.80;;;1.50;99.90;;;;;;4898862;29;20490;-73
2023/03/09 05:16:53;;;;;;;23.73;19.77;;;1.50;99.90;;;;;;4897586;29;20457;-73
2023/03/09 05:19:23;;;;;;;25.20;20.00;;;1.50;99.90;;;;;;4897880;29;20809;-73
2023/03/09 05:21:56;;;;;;;23.37;19.47;;;1.50;99.90;;;;;;4897785;29;20485;-73
2023/03/09 05:24:25;;;;;;;20.37;17.73;;;1.50;99.90;;;;;;4897351;29;20572;-74
2023/03/09 05:26:53;;;;;;;22.93;19.00;;;1.50;99.90;;;;;;4897498;29;20446;-73
2023/03/09 05:29:25;;;;;;;20.77;16.90;;;1.50;99.90;;;;;;4898001;29;20499;-73
2023/03/09 05:31:55;;;;;;;21.10;17.90;;;1.50;99.90;;;;;;4897370;29;20463;-73
2023/03/09 05:34:23;;;;;;;21.20;17.50;;;1.50;99.90;;;;;;4898242;29;20669;-73
2023/03/09 05:36:52;;;;;;;22.27;19.87;;;1.50;99.90;;;;;;4897400;29;20538;-73
2023/03/09 05:39:25;;;;;;;23.20;19.40;;;1.50;99.90;;;;;;4897608;29;20452;-73
2023/03/09 05:41:54;;;;;;;24.47;18.60;;;1.50;99.90;;;;;;4897281;29;20456;-73
2023/03/09 05:44:29;;;;;;;26.90;19.57;;;1.50;99.90;;;;;;4897257;29;20957;-73
2023/03/09 05:46:58;;;;;;;21.70;18.23;;;1.40;99.90;;;;;;4897338;29;20461;-73
2023/03/09 05:49:27;;;;;;;22.77;18.17;;;1.40;99.90;;;;;;4898402;29;20443;-73
2023/03/09 05:51:55;;;;;;;22.77;18.80;;;1.40;99.90;;;;;;4897084;29;20451;-73
2023/03/09 05:54:25;;;;;;;23.10;19.80;;;1.40;99.90;;;;;;4896974;29;20483;-73
2023/03/09 05:56:57;;;;;;;23.17;19.13;;;1.40;99.90;;;;;;4897881;29;20461;-73
2023/03/09 05:59:26;;;;;;;21.23;18.50;;;1.40;99.90;;;;;;4897034;29;20461;-73
2023/03/09 06:01:54;;;;;;;24.23;19.50;;;1.40;99.90;;;;;;4897036;29;20488;-73
2023/03/09 06:04:25;;;;;;;22.30;18.00;;;1.50;99.90;;;;;;4897190;29;20485;-73
2023/03/09 06:06:58;;;;;;;22.70;18.40;;;1.40;99.90;;;;;;4897107;29;20511;-73
2023/03/09 06:09:34;;;;;;;23.80;19.53;;;1.40;99.90;;;;;;4897253;29;20883;-73
2023/03/09 06:12:05;;;;;;;20.80;17.73;;;1.40;99.90;;;;;;4897184;29;20546;-73
2023/03/09 06:14:34;;;;;;;23.37;18.50;;;1.40;99.90;;;;;;4896915;29;20477;-73
2023/03/09 06:17:04;;;;;;;21.80;17.50;;;1.50;99.90;;;;;;4896931;29;20487;-73
2023/03/09 06:19:33;;;;;;;21.73;18.47;;;1.40;99.90;;;;;;4896934;29;20457;-73
2023/03/09 06:22:01;;;;;;;21.23;17.40;;;1.40;99.90;;;;;;4897217;29;20490;-73
2023/03/09 06:24:31;;;;;;;20.80;17.03;;;1.40;99.90;;;;;;4897057;29;20481;-73
2023/03/09 06:27:02;;;;;;;22.77;18.90;;;1.40;99.90;;;;;;4896951;29;20457;-73
2023/03/09 06:29:34;;;;;;;21.10;17.03;;;1.50;99.90;;;;;;4896872;29;20457;-73
2023/03/09 06:32:03;;;;;;;20.30;17.67;;;1.40;99.90;;;;;;4896874;29;21024;-73
2023/03/09 06:34:34;;;;;;;22.27;18.63;;;1.40;99.90;;;;;;4897205;29;20469;-73
2023/03/09 06:37:05;;;;;;;21.20;17.50;;;1.40;99.90;;;;;;4896831;29;20846;-73
2023/03/09 06:39:33;;;;;;;21.07;16.90;;;1.50;99.90;;;;;;4896730;29;20980;-73
2023/03/09 06:42:05;;;;;;;21.23;18.00;;;1.50;99.90;;;;;;4896694;29;21025;-73
2023/03/09 06:44:54;;;;;;;21.60;16.03;;;1.50;99.90;;;;;;4898277;29;20897;-73
2023/03/09 06:47:26;;;;;;;21.77;18.33;;;1.40;99.90;;;;;;4898575;29;20454;-73
2023/03/09 06:50:00;;;;;;;20.10;16.53;;;1.50;99.90;;;;;;4900302;29;20540;-73
2023/03/09 06:52:31;;;;;;;21.67;17.77;;;1.50;99.90;;;;;;4900136;29;20478;-73
2023/03/09 06:54:59;;;;;;;21.60;17.43;;;1.50;99.90;;;;;;4900093;29;21005;-73
2023/03/09 06:57:46;;;;;;;22.07;17.70;;;1.50;99.90;;;;;;4900216;29;20535;-73
2023/03/09 07:00:15;;;;;;;19.80;17.03;;;1.50;99.90;;;;;;4900133;29;20469;-73
2023/03/09 07:02:45;;;;;;;19.00;16.67;;;1.50;99.90;;;;;;4900830;29;20478;-73
2023/03/09 07:05:14;;;;;;;21.93;18.30;;;1.50;99.90;;;;;;4901786;29;20798;-73
2023/03/09 07:07:42;;;;;;;21.17;17.83;;;1.50;99.90;;;;;;4899884;29;20470;-73
2023/03/09 07:10:11;;;;;;;21.20;17.40;;;1.50;99.90;;;;;;4899903;29;20460;-73
2023/03/09 07:12:40;;;;;;;21.00;17.67;;;1.60;99.90;;;;;;4899753;29;20575;-73
2023/03/09 07:15:10;;;;;;;22.33;17.70;;;1.50;99.90;;;;;;4901512;29;20474;-73
2023/03/09 07:17:38;;;;;;;19.17;16.90;;;1.60;99.90;;;;;;4899859;29;20455;-73
2023/03/09 07:20:07;;;;;;;19.20;16.43;;;1.60;99.90;;;;;;4899749;29;20973;-74
2023/03/09 07:22:35;;;;;;;20.10;17.70;;;1.60;99.90;;;;;;4899724;29;20476;-74
2023/03/09 07:25:04;;;;;;;21.80;17.97;;;1.60;99.90;;;;;;4900926;29;20955;-73
2023/03/09 07:27:32;;;;;;;21.33;18.10;;;1.60;99.90;;;;;;4899597;29;20480;-73
2023/03/09 07:30:00;;;;;;;19.60;15.00;;;1.60;99.90;;;;;;4899597;29;20516;-73
2023/03/09 07:32:30;;;;;;;19.33;16.57;;;1.60;99.90;;;;;;4899394;29;20469;-73
2023/03/09 07:34:58;;;;;;;19.33;16.87;;;1.70;99.90;;;;;;4899473;29;20483;-73
2023/03/09 07:37:27;;;;;;;18.90;16.80;;;1.70;99.90;;;;;;4900672;29;20473;-73
2023/03/09 07:39:55;;;;;;;18.60;15.53;;;1.70;99.90;;;;;;4900768;29;20448;-74
2023/03/09 07:42:23;;;;;;;19.60;17.50;;;1.70;99.90;;;;;;4899221;29;20456;-73
2023/03/09 07:45:21;;;;;;;21.10;16.40;;;1.70;99.90;;;;;;4899387;29;20457;-74
2023/03/09 07:47:51;;;;;;;20.03;16.30;;;1.70;99.90;;;;;;4901082;29;20447;-74
2023/03/09 07:50:19;;;;;;;21.20;17.80;;;1.70;99.90;;;;;;4899188;29;20464;-74
2023/03/09 07:52:47;;;;;;;18.60;16.20;;;1.70;99.90;;;;;;4900656;29;20464;-74
2023/03/09 07:55:15;;;;;;;22.20;17.17;;;1.70;99.90;;;;;;4900609;29;20496;-74
2023/03/09 07:57:44;;;;;;;20.33;16.63;;;1.80;99.90;;;;;;4900170;29;20457;-73
2023/03/09 08:00:17;;;;;;;18.47;16.20;;;1.80;99.90;;;;;;4899735;29;20483;-73
2023/03/09 08:02:46;;;;;;;18.60;16.27;;;1.80;99.90;;;;;;4900226;29;20467;-73
2023/03/09 08:05:18;;;;;;;17.97;16.03;;;1.80;99.90;;;;;;4900533;29;20433;-73
2023/03/09 08:07:46;;;;;;;19.03;15.67;;;1.80;99.90;;;;;;4900230;29;20427;-73
2023/03/09 08:10:15;;;;;;;20.43;17.03;;;1.80;99.90;;;;;;4900806;29;20445;-73
2023/03/09 08:12:47;;;;;;;17.63;15.57;;;1.80;99.90;;;;;;4900027;29;20557;-73
2023/03/09 08:15:17;;;;;;;18.87;15.70;;;1.80;99.90;;;;;;4900447;29;20490;-73
2023/03/09 08:17:45;;;;;;;19.17;16.73;;;1.80;99.90;;;;;;4898626;29;20457;-73
2023/03/09 08:20:13;;;;;;;19.17;15.63;;;1.80;99.90;;;;;;4900164;29;20444;-73
2023/03/09 08:22:43;;;;;;;17.80;15.40;;;1.90;99.90;;;;;;4900045;29;20471;-73
2023/03/09 08:25:13;;;;;;;18.93;16.20;;;1.90;99.90;;;;;;4898997;29;20468;-73
2023/03/09 08:27:43;;;;;;;21.27;16.00;;;1.90;99.90;;;;;;4899738;29;20455;-73
2023/03/09 08:30:13;;;;;;;16.83;15.03;;;2.00;99.90;;;;;;4899797;29;20423;-73
2023/03/09 08:32:42;;;;;;;18.10;16.20;;;2.00;99.90;;;;;;4899627;29;20464;-73
2023/03/09 08:35:10;;;;;;;16.00;14.40;;;2.00;99.90;;;;;;4898567;29;20584;-73
2023/03/09 08:37:39;;;;;;;16.40;14.37;;;2.00;99.90;;;;;;4899522;29;20451;-74
2023/03/09 08:40:10;;;;;;;19.20;16.13;;;2.10;99.90;;;;;;4899525;29;20483;-74
2023/03/09 08:42:39;;;;;;;15.50;13.90;;;2.10;99.90;;;;;;4899475;29;20472;-74
2023/03/09 08:45:09;;;;;;;18.27;14.83;;;2.10;99.90;;;;;;4898194;29;20455;-74
2023/03/09 08:47:37;;;;;;;17.10;15.30;;;2.10;99.90;;;;;;4898179;29;20457;-74
2023/03/09 08:50:07;;;;;;;17.23;15.40;;;2.20;99.90;;;;;;4899332;29;20451;-74
2023/03/09 08:52:37;;;;;;;14.67;12.10;;;2.20;99.90;;;;;;4899529;29;20497;-74
2023/03/09 08:55:09;;;;;;;18.03;14.73;;;2.20;99.90;;;;;;4897933;29;20569;-74
2023/03/09 08:57:37;;;;;;;17.70;14.87;;;2.20;99.90;;;;;;4898506;29;20449;-74
2023/03/09 09:00:08;;;;;;;16.80;15.10;;;2.20;99.90;;;;;;4899221;29;20528;-74
2023/03/09 09:02:37;;;;;;;15.47;13.40;;;2.30;99.90;;;;;;4897906;29;20497;-73
2023/03/09 09:05:06;;;;;;;16.40;14.70;;;2.30;99.90;;;;;;4899052;29;20935;-73
2023/03/09 09:07:35;;;;;;;15.70;14.00;;;2.30;99.90;;;;;;4897739;29;20456;-74
2023/03/09 09:10:04;;;;;;;15.63;13.53;;;2.40;99.90;;;;;;4899226;29;20460;-73
2023/03/09 09:12:37;;;;;;;15.10;13.33;;;2.30;99.90;;;;;;4897695;29;20489;-74
2023/03/09 09:15:08;;;;;;;14.20;12.83;;;2.40;99.90;;;;;;4897831;29;20467;-74
2023/03/09 09:17:37;;;;;;;15.57;12.60;;;2.40;99.90;;;;;;4897754;29;20473;-74
2023/03/09 09:20:06;;;;;;;14.13;12.73;;;2.40;99.90;;;;;;4898834;29;20445;-74
2023/03/09 09:22:35;;;;;;;14.30;12.50;;;2.40;99.90;;;;;;4897667;29;20487;-74
2023/03/09 09:25:05;;;;;;;13.93;12.50;;;2.40;99.90;;;;;;4898802;29;20815;-73
2023/03/09 09:27:34;;;;;;;13.50;12.10;;;2.50;99.90;;;;;;4899328;29;20432;-73
2023/03/09 09:30:03;;;;;;;15.47;13.87;;;2.40;99.90;;;;;;4898610;29;20944;-74
2023/03/09 09:32:31;;;;;;;13.93;12.47;;;2.50;99.90;;;;;;4898526;29;20457;-74
2023/03/09 09:35:00;;;;;;;13.27;11.87;;;2.50;99.90;;;;;;4897547;29;20904;-74
2023/03/09 09:37:30;;;;;;;14.70;13.30;;;2.50;99.90;;;;;;4898521;29;20477;-73
2023/03/09 09:39:58;;;;;;;13.50;12.10;;;2.60;99.90;;;;;;4897352;29;20450;-73
2023/03/09 09:42:31;;;;;;;12.53;11.23;;;2.60;99.90;;;;;;4898427;29;20469;-73
2023/03/09 09:45:03;;;;;;;13.13;11.73;;;2.60;99.90;;;;;;4898519;29;20435;-73
2023/03/09 09:47:33;;;;;;;12.80;11.53;;;2.60;99.90;;;;;;4897218;29;20445;-73
2023/03/09 09:50:02;;;;;;;13.40;11.97;;;2.70;99.90;;;;;;4897196;29;20449;-74
2023/03/09 09:52:46;;;;;;;11.87;10.63;;;2.60;99.90;;;;;;4898337;29;20478;-73
2023/03/09 09:55:21;;;;;;;12.10;10.73;;;2.70;99.90;;;;;;4898547;29;20457;-73
2023/03/09 09:57:59;;;;;;;11.80;10.60;;;2.70;99.90;;;;;;4897129;29;20449;-73
2023/03/09 10:00:35;;;;;;;14.07;10.57;;;2.70;99.90;;;;;;4898829;29;20430;-73
2023/03/09 10:03:13;;;;;;;12.73;10.77;;;2.70;99.90;;;;;;4898566;29;20862;-73
2023/03/09 10:05:47;;;;;;;14.10;12.07;;;2.70;99.90;;;;;;4897232;29;20459;-74
2023/03/09 10:08:25;;;;;;;12.07;10.80;;;2.80;99.90;;;;;;4897158;29;21038;-74
2023/03/09 10:10:53;;;;;;;12.53;11.03;;;2.80;99.90;;;;;;4898360;29;20425;-73
2023/03/09 10:13:28;;;;;;;13.40;12.00;;;2.80;99.90;;;;;;4898225;29;20847;-73
2023/03/09 10:16:02;;;;;;;11.80;10.60;;;2.80;99.90;;;;;;4898404;29;20513;-73
2023/03/09 10:18:40;;;;;;;13.13;10.53;;;2.80;99.90;;;;;;4898126;29;20427;-74
2023/03/09 10:21:18;;;;;;;12.77;11.47;;;2.90;99.90;;;;;;4898129;29;20452;-73
2023/03/09 10:23:46;;;;;;;12.53;11.23;;;2.90;99.90;;;;;;4902083;29;20464;-73
2023/03/09 10:26:32;;;;;;;15.30;12.70;;;2.90;99.90;;;;;;4901904;29;20459;-73
2023/03/09 10:29:06;;;;;;;13.30;11.97;;;2.90;99.90;;;;;;4900711;29;20829;-74
2023/03/09 10:31:42;;;;;;;13.43;11.40;;;2.90;99.90;;;;;;4902197;29;20429;-73
2023/03/09 10:34:17;;;;;;;14.73;13.27;;;2.90;99.90;;;;;;4901867;29;20558;-73
2023/03/09 10:36:55;;;;;;;13.90;12.30;;;3.00;99.90;;;;;;4901695;29;20460;-73
2023/03/09 10:39:24;;;;;;;16.70;15.10;;;3.00;99.90;;;;;;4900695;29;20839;-73
2023/03/09 10:41:55;;;;;;;15.07;13.50;;;3.00;99.90;;;;;;4900397;29;20484;-73
2023/03/09 10:44:24;;;;;;;13.80;12.40;;;3.00;99.90;;;;;;4900341;29;20487;-73
2023/03/09 10:46:59;;;;;;;13.60;11.93;;;3.00;99.90;;;;;;4901521;29;20479;-73
2023/03/09 10:49:31;;;;;;;13.57;12.27;;;3.10;99.90;;;;;;4901582;29;20947;-73
2023/03/09 10:52:02;;;;;;;12.80;11.50;;;3.10;99.90;;;;;;4901989;29;20943;-73
2023/03/09 10:54:38;;;;;;;15.67;13.60;;;3.10;99.90;;;;;;4900517;29;20449;-74
2023/03/09 10:57:22;;;;;;;14.47;12.97;;;3.10;99.90;;;;;;4900129;29;20472;-74
2023/03/09 10:59:58;;;;;;;16.37;13.97;;;3.10;99.90;;;;;;4902057;29;20841;-74
2023/03/09 11:02:33;;;;;;;16.30;14.60;;;3.10;99.90;;;;;;4901277;29;20468;-74
2023/03/09 11:05:14;;;;;;;15.47;13.90;;;3.20;99.90;;;;;;4900106;29;20460;-74
2023/03/09 11:07:42;;;;;;;13.17;11.90;;;3.20;99.90;;;;;;4901868;29;20439;-73
2023/03/09 11:10:26;;;;;;;16.63;13.10;;;3.20;99.90;;;;;;4901378;29;20935;-74
2023/03/09 11:12:54;;;;;;;15.00;12.60;;;3.20;99.90;;;;;;4901264;29;20524;-74
2023/03/09 11:15:29;;;;;;;13.57;12.17;;;3.20;99.90;;;;;;4900965;29;20477;-74
2023/03/09 11:18:00;;;;;;;14.63;13.13;;;3.20;99.90;;;;;;4901587;29;20425;-74
2023/03/09 11:20:31;;;;;;;15.50;13.90;;;3.20;99.90;;;;;;4901362;29;20432;-73
2023/03/09 11:23:04;;;;;;;15.80;14.20;;;3.30;99.90;;;;;;4901179;29;20457;-73
2023/03/09 11:25:40;;;;;;;14.87;13.37;;;3.20;99.90;;;;;;4900834;29;20494;-73
2023/03/09 11:28:19;;;;;;;15.37;13.80;;;3.30;99.90;;;;;;4899665;29;20492;-74
2023/03/09 11:30:52;;;;;;;15.03;13.27;;;3.30;99.90;;;;;;4899630;29;20445;-73
2023/03/09 11:33:22;;;;;;;15.00;13.60;;;3.30;99.90;;;;;;4899229;29;20472;-74
2023/03/09 11:35:53;;;;;;;16.47;14.77;;;3.40;99.90;;;;;;4901586;29;20483;-74
2023/03/09 11:38:23;;;;;;;14.13;12.63;;;3.30;99.90;;;;;;4899629;29;20493;-74
2023/03/09 11:41:00;;;;;;;14.83;13.17;;;3.40;99.90;;;;;;4900843;29;20468;-74
2023/03/09 11:43:32;;;;;;;14.87;13.27;;;3.40;99.90;;;;;;4900753;29;20485;-74
2023/03/09 11:46:02;;;;;;;15.40;13.40;;;3.40;99.90;;;;;;4900898;29;20516;-74
2023/03/09 11:48:37;;;;;;;14.70;13.30;;;3.40;99.90;;;;;;4900530;29;20435;-74
2023/03/09 11:51:09;;;;;;;16.33;14.80;;;3.40;99.90;;;;;;4900798;29;20432;-74
2023/03/09 11:53:39;;;;;;;16.90;14.30;;;3.40;99.90;;;;;;4900554;29;20465;-74
2023/03/09 11:56:18;;;;;;;16.50;14.80;;;3.50;99.90;;;;;;4899231;29;20524;-74
2023/03/09 11:58:52;;;;;;;16.00;14.40;;;3.50;99.90;;;;;;4899188;29;20455;-74
2023/03/09 12:01:27;;;;;;;16.10;14.30;;;3.50;99.90;;;;;;4900957;29;20436;-73
2023/03/09 12:04:00;;;;;;;15.73;14.23;;;3.60;99.90;;;;;;4899372;29;20568;-73
2023/03/09 12:06:48;;;;;;;18.20;14.90;;;3.60;99.90;;;;;;4899004;29;20489;-74
2023/03/09 12:09:26;;;;;;;21.13;18.60;;;3.60;99.90;;;;;;4899153;29;20906;-73
2023/03/09 12:11:58;;;;;;;17.37;15.57;;;3.60;99.90;;;;;;4898953;29;20531;-73
2023/03/09 12:14:31;;;;;;;17.43;15.70;;;3.70;99.90;;;;;;4898807;29;20481;-73
2023/03/09 12:17:04;;;;;;;17.60;13.70;;;3.70;99.90;;;;;;4898811;29;20479;-73
2023/03/09 12:19:36;;;;;;;14.60;13.10;;;3.70;99.90;;;;;;4898917;29;20456;-73
2023/03/09 12:22:08;;;;;;;17.90;16.10;;;3.80;99.90;;;;;;4898712;29;20485;-73
2023/03/09 12:24:39;;;;;;;14.63;13.23;;;3.80;99.90;;;;;;4900048;29;20461;-74
2023/03/09 12:27:18;;;;;;;16.40;14.47;;;3.80;99.90;;;;;;4898688;29;20457;-74
2023/03/09 12:29:48;;;;;;;14.97;13.33;;;3.90;99.90;;;;;;4900049;29;20430;-74
2023/03/09 12:32:38;;;;;;;14.87;13.37;;;3.90;99.90;;;;;;4899742;29;20862;-74
2023/03/09 12:35:56;;;;;;;14.17;12.70;;;3.90;99.90;;;;;;4898449;29;20481;-74
2023/03/09 12:38:26;;;;;;;34.07;29.33;;;3.90;99.90;;;;;;4899922;29;20568;-74
2023/03/09 12:40:54;;;;;;;17.60;15.47;;;3.90;99.90;;;;;;4898312;29;20508;-74
2023/03/09 12:43:46;;;;;;;14.80;13.30;;;4.00;99.90;;;;;;4899430;29;20517;-74
2023/03/09 12:46:51;;;;;;;14.43;13.00;;;3.90;99.90;;;;;;4897690;29;20445;-74
2023/03/09 12:49:23;;;;;;;15.60;13.93;;;4.00;99.90;;;;;;4898405;29;20445;-74
2023/03/09 12:52:14;;;;;;;15.73;14.13;;;4.00;99.90;;;;;;4898188;29;20457;-74
2023/03/09 12:54:43;;;;;;;15.00;13.40;;;4.00;99.90;;;;;;4896424;29;20461;-74
2023/03/09 12:57:19;;;;;;;14.43;12.93;;;4.00;99.90;;;;;;4899158;29;20475;-74